createdAt,value
2022-09-06T17:58:41.223Z,0.73
2022-09-06T18:03:47.751Z,0.66
2022-09-06T18:08:55.766Z,0.57
2022-09-06T18:14:02.781Z,0.55
2022-09-06T18:19:10.595Z,0.41
2022-09-06T18:24:17.289Z,0.40
2022-09-06T18:29:24.907Z,0.49
2022-09-06T18:34:32.085Z,0.58
2022-09-06T18:39:39.593Z,0.45
2022-09-06T18:44:46.311Z,0.58
2022-09-06T18:49:53.154Z,0.51
2022-09-06T18:54:59.542Z,0.47
2022-09-06T19:00:06.637Z,0.53
2022-09-06T19:05:13.088Z,0.46
2022-09-06T19:10:20.347Z,0.77
2022-09-06T19:15:26.759Z,0.66
2022-09-06T19:20:33.684Z,0.63
2022-09-06T19:25:41.498Z,0.51
2022-09-06T19:30:49.031Z,0.44
2022-09-06T19:36:10.332Z,0.48
2022-09-06T19:41:03.522Z,0.54
2022-09-06T19:46:10.021Z,0.51
2022-09-06T19:51:16.921Z,0.55
2022-09-06T19:56:23.407Z,0.39
2022-09-06T20:01:30.470Z,0.46
2022-09-06T20:06:36.824Z,0.29
2022-09-06T20:11:43.688Z,0.46
2022-09-06T20:16:50.218Z,0.38
2022-09-06T20:21:57.081Z,0.29
2022-09-06T20:27:03.687Z,0.36
2022-09-06T20:32:10.571Z,0.66
2022-09-06T20:37:17.062Z,0.40
2022-09-06T20:42:24.487Z,0.30
2022-09-06T20:47:30.967Z,0.38
2022-09-06T20:52:37.854Z,0.32
2022-09-06T20:57:44.287Z,0.26
2022-09-06T21:02:51.451Z,0.32
2022-09-06T21:07:57.905Z,0.28
2022-09-06T21:13:04.744Z,0.43
2022-09-06T21:18:11.170Z,0.41
2022-09-06T21:23:18.023Z,0.27
2022-09-06T21:28:24.551Z,0.30
2022-09-06T21:33:31.503Z,0.38
2022-09-06T21:38:37.719Z,0.19
2022-09-06T21:43:45.113Z,0.24
2022-09-06T21:48:51.532Z,0.25
2022-09-06T21:53:58.401Z,0.24
2022-09-06T21:59:04.885Z,0.23
2022-09-06T22:04:12.784Z,0.37
2022-09-06T22:09:19.189Z,0.23
2022-09-06T22:14:26.085Z,0.28
2022-09-06T22:19:32.578Z,0.31
2022-09-06T22:24:39.306Z,0.28
2022-09-06T22:29:45.754Z,0.18
2022-09-06T22:34:52.655Z,0.37
2022-09-06T22:39:59.171Z,0.30
2022-09-06T22:45:05.850Z,0.28
2022-09-06T22:50:12.348Z,0.24
2022-09-06T22:55:19.126Z,0.36
2022-09-06T23:00:25.548Z,0.33
2022-09-06T23:05:32.237Z,0.34
2022-09-06T23:10:38.668Z,0.30
2022-09-06T23:15:45.527Z,0.43
2022-09-06T23:20:51.991Z,0.25
2022-09-06T23:25:59.600Z,0.36
2022-09-06T23:31:06.129Z,0.33
2022-09-06T23:36:13.505Z,0.34
2022-09-06T23:41:19.991Z,0.39
2022-09-06T23:46:26.970Z,0.42
2022-09-06T23:51:33.297Z,0.34
2022-09-06T23:56:40.207Z,0.16
